createdAt,value
2022-10-11T00:14:55.354Z,3.209
2022-10-11T00:30:37.725Z,3.209
2022-10-11T00:46:20.349Z,3.207
2022-10-11T01:02:02.983Z,3.207
2022-10-11T01:17:45.948Z,3.207
2022-10-11T01:33:28.770Z,3.207
2022-10-11T01:49:11.831Z,3.207
2022-10-11T02:04:54.037Z,3.209
2022-10-11T02:20:37.115Z,3.209
2022-10-11T02:36:19.654Z,3.209
2022-10-11T02:52:02.167Z,3.209
2022-10-11T03:07:44.713Z,3.209
2022-10-11T03:23:27.493Z,3.212
2022-10-11T03:39:09.869Z,3.209
2022-10-11T03:54:52.541Z,3.209
2022-10-11T04:10:34.785Z,3.209
2022-10-11T04:26:17.584Z,3.209
2022-10-11T04:42:00.519Z,3.209
2022-10-11T04:57:43.424Z,3.21
2022-10-11T05:13:25.670Z,3.21
2022-10-11T05:29:08.019Z,3.21
2022-10-11T05:44:50.235Z,3.21
2022-10-11T06:00:32.700Z,3.212
2022-10-11T06:16:15.408Z,3.217
2022-10-11T06:31:58.564Z,3.217
2022-10-11T06:47:41.070Z,3.217
2022-10-11T07:03:23.196Z,3.212
2022-10-11T07:19:05.993Z,3.21
2022-10-11T07:34:48.612Z,3.21
2022-10-11T07:50:31.089Z,3.206
2022-10-11T08:06:13.735Z,3.212
2022-10-11T08:21:55.910Z,3.224
2022-10-11T08:37:38.188Z,3.232
2022-10-11T08:53:20.322Z,3.236
2022-10-11T09:09:02.659Z,3.234
2022-10-11T09:24:44.759Z,3.232
2022-10-11T09:40:27.772Z,3.241
2022-10-11T09:56:10.037Z,3.259
2022-10-11T10:11:52.934Z,3.382
2022-10-11T10:27:35.159Z,3.33
2022-10-11T10:43:17.783Z,3.3
2022-10-11T10:59:00.655Z,3.29
2022-10-11T11:14:42.859Z,3.281
2022-10-11T11:30:25.396Z,3.272
2022-10-11T11:46:08.025Z,3.267
2022-10-11T12:01:50.269Z,3.26
2022-10-11T12:02:37.543Z,3.253
2022-10-11T12:18:20.075Z,3.25
2022-10-11T12:34:02.371Z,3.246
2022-10-11T12:49:45.282Z,3.243
2022-10-11T13:05:27.666Z,3.241
2022-10-11T13:21:10.666Z,3.235
2022-10-11T13:36:52.757Z,3.372
2022-10-11T13:52:35.177Z,3.4
2022-10-11T14:08:17.749Z,3.376
2022-10-11T14:23:59.922Z,3.359
2022-10-11T14:39:42.351Z,3.344
2022-10-11T14:55:25.161Z,3.332
2022-10-11T15:11:07.489Z,3.307
2022-10-11T15:26:49.738Z,3.299
2022-10-11T15:42:32.368Z,3.288
2022-10-11T15:58:15.020Z,3.279
2022-10-11T16:13:57.144Z,3.272
2022-10-11T16:29:39.995Z,3.265
2022-10-11T16:45:23.063Z,3.259
2022-10-11T17:01:05.485Z,3.253
2022-10-11T17:16:48.102Z,3.249
2022-10-11T17:32:30.819Z,3.245
2022-10-11T17:48:12.963Z,3.241
2022-10-11T18:03:55.648Z,3.238
2022-10-11T18:19:38.111Z,3.236
2022-10-11T18:35:20.250Z,3.232
2022-10-11T18:51:02.777Z,3.229
2022-10-11T19:06:45.724Z,3.228
2022-10-11T19:22:28.690Z,3.225
2022-10-11T19:38:11.212Z,3.224
2022-10-11T19:53:54.215Z,3.216
2022-10-11T20:09:36.595Z,3.214
2022-10-11T20:25:19.738Z,3.214
2022-10-11T20:41:01.879Z,3.213
2022-10-11T20:56:45.006Z,3.212
2022-10-11T21:12:27.860Z,3.212
2022-10-11T21:28:10.000Z,3.21
2022-10-11T21:43:53.022Z,3.21
2022-10-11T21:59:35.217Z,3.209
2022-10-11T22:15:18.244Z,3.209
2022-10-11T22:31:01.102Z,3.207
2022-10-11T22:46:43.230Z,3.207
2022-10-11T23:02:25.477Z,3.207
2022-10-11T23:18:08.537Z,3.206
2022-10-11T23:33:51.550Z,3.207
2022-10-11T23:49:34.056Z,3.206
